createdAt,value
2022-07-26T00:00:12.400Z,54.16
2022-07-26T00:02:39.490Z,53.65
2022-07-26T00:05:14.535Z,54.02
2022-07-26T00:07:41.124Z,54.44
2022-07-26T00:10:08.420Z,54.25
2022-07-26T00:12:35.103Z,53.97
2022-07-26T00:15:02.386Z,53.62
2022-07-26T00:17:28.974Z,53.77
2022-07-26T00:19:55.540Z,53.56
2022-07-26T00:22:34.193Z,53.87
2022-07-26T00:25:05.604Z,53.96
2022-07-26T00:27:32.721Z,54.08
2022-07-26T00:29:59.256Z,53.69
2022-07-26T00:32:25.982Z,53.77
2022-07-26T00:34:52.544Z,53.78
2022-07-26T00:37:20.920Z,53.15
2022-07-26T00:39:48.386Z,53.25
2022-07-26T00:42:15.333Z,53.10
2022-07-26T00:44:44.281Z,53.53
2022-07-26T00:47:12.445Z,53.50
2022-07-26T00:49:39.004Z,53.80
2022-07-26T00:52:06.700Z,54.06
2022-07-26T00:54:33.647Z,53.50
2022-07-26T00:57:00.309Z,53.30
2022-07-26T00:59:27.119Z,54.18
2022-07-26T01:01:54.485Z,53.38
2022-07-26T01:04:21.294Z,53.68
2022-07-26T01:06:49.174Z,53.86
2022-07-26T01:09:17.806Z,53.91
2022-07-26T01:11:45.681Z,53.50
2022-07-26T01:14:12.357Z,53.13
2022-07-26T01:16:39.113Z,52.99
2022-07-26T01:19:05.759Z,53.03
2022-07-26T01:21:33.939Z,52.61
2022-07-26T01:24:02.435Z,52.77
2022-07-26T01:26:29.142Z,52.91
2022-07-26T01:28:55.843Z,53.11
2022-07-26T01:31:22.866Z,53.10
2022-07-26T01:33:50.094Z,53.42
2022-07-26T01:36:17.092Z,53.56
2022-07-26T01:38:44.197Z,53.52
2022-07-26T01:41:11.286Z,53.61
2022-07-26T01:43:38.464Z,53.77
2022-07-26T01:46:08.243Z,53.98
2022-07-26T01:48:35.641Z,53.93
2022-07-26T01:51:02.653Z,53.76
2022-07-26T01:53:29.322Z,53.55
2022-07-26T01:55:55.962Z,53.50
2022-07-26T01:58:22.811Z,53.67
2022-07-26T02:00:49.608Z,54.12
2022-07-26T02:03:16.227Z,54.35
2022-07-26T02:05:42.885Z,54.77
2022-07-26T02:08:10.555Z,53.84
2022-07-26T02:10:56.330Z,54.14
2022-07-26T02:13:23.506Z,54.44
2022-07-26T02:15:50.226Z,53.95
2022-07-26T02:18:16.863Z,54.59
2022-07-26T02:20:43.453Z,53.66
2022-07-26T02:23:10.136Z,53.98
2022-07-26T02:25:36.835Z,53.96
2022-07-26T02:28:03.516Z,53.72
2022-07-26T02:30:30.313Z,53.71
2022-07-26T02:32:56.863Z,53.61
2022-07-26T02:35:23.468Z,53.48
2022-07-26T02:37:50.058Z,53.70
2022-07-26T02:40:19.353Z,53.41
2022-07-26T02:42:46.475Z,53.66
2022-07-26T02:45:13.075Z,54.19
2022-07-26T02:47:50.555Z,54.44
2022-07-26T02:50:18.842Z,54.38
2022-07-26T02:52:49.023Z,54.83
2022-07-26T02:55:17.490Z,55.10
2022-07-26T02:57:46.370Z,54.82
2022-07-26T03:00:15.746Z,55.05
2022-07-26T03:02:42.398Z,55.13
2022-07-26T03:05:09.933Z,54.50
2022-07-26T03:07:36.612Z,54.65
2022-07-26T03:10:04.753Z,54.44
2022-07-26T03:12:31.586Z,54.59
2022-07-26T03:14:58.293Z,54.48
2022-07-26T03:17:24.982Z,54.79
2022-07-26T03:19:51.635Z,54.65
2022-07-26T03:22:18.362Z,55.07
2022-07-26T03:24:44.951Z,55.58
2022-07-26T03:27:11.607Z,55.19
2022-07-26T03:29:38.243Z,55.42
2022-07-26T03:32:04.972Z,55.23
2022-07-26T03:34:31.604Z,55.68
2022-07-26T03:36:58.259Z,55.87
2022-07-26T03:39:25.558Z,55.68
2022-07-26T03:41:52.165Z,55.37
2022-07-26T03:44:20.106Z,55.76
2022-07-26T03:46:46.743Z,55.73
2022-07-26T03:49:16.975Z,55.20
2022-07-26T03:51:43.888Z,55.70
2022-07-26T03:54:11.093Z,55.60
2022-07-26T03:56:38.015Z,55.74
2022-07-26T03:59:07.137Z,55.61
2022-07-26T04:01:35.173Z,55.51
2022-07-26T04:04:02.063Z,55.69
2022-07-26T04:06:30.131Z,56.12
2022-07-26T04:08:56.954Z,56.13
2022-07-26T04:11:26.458Z,56.52
2022-07-26T04:13:55.470Z,56.84
2022-07-26T04:16:22.515Z,56.45
2022-07-26T04:18:49.241Z,56.38
2022-07-26T04:21:16.175Z,56.48
2022-07-26T04:23:44.507Z,56.69
2022-07-26T04:26:14.521Z,56.77
2022-07-26T04:28:42.332Z,56.91
2022-07-26T04:31:09.795Z,57.25
2022-07-26T04:33:36.519Z,57.18
2022-07-26T04:36:03.676Z,57.41
2022-07-26T04:38:30.495Z,57.42
2022-07-26T04:40:58.120Z,57.85
2022-07-26T04:43:25.201Z,57.70
2022-07-26T04:45:51.831Z,57.75
2022-07-26T04:48:18.435Z,57.93
2022-07-26T04:50:45.066Z,58.25
2022-07-26T04:53:11.741Z,58.55
2022-07-26T04:55:39.371Z,58.84
2022-07-26T04:58:06.345Z,58.70
2022-07-26T05:00:35.074Z,58.96
2022-07-26T05:03:13.363Z,58.94
2022-07-26T05:05:40.278Z,58.82
2022-07-26T05:08:07.142Z,58.70
2022-07-26T05:10:36.011Z,59.12
2022-07-26T05:13:04.603Z,59.40
2022-07-26T05:15:35.150Z,58.94
2022-07-26T05:18:10.879Z,59.06
2022-07-26T05:20:40.646Z,59.40
2022-07-26T05:23:07.973Z,58.79
2022-07-26T05:25:35.150Z,58.23
2022-07-26T05:28:01.852Z,57.97
2022-07-26T05:30:28.678Z,58.78
2022-07-26T05:32:55.336Z,59.16
2022-07-26T05:35:21.986Z,58.86
2022-07-26T05:37:48.661Z,58.81
2022-07-26T05:40:15.307Z,58.32
2022-07-26T05:42:41.933Z,57.38
2022-07-26T05:45:09.073Z,57.82
2022-07-26T05:47:35.740Z,57.18
2022-07-26T05:50:02.709Z,56.88
2022-07-26T05:52:29.492Z,56.29
2022-07-26T05:54:56.096Z,55.82
2022-07-26T05:57:22.667Z,55.80
2022-07-26T05:59:49.287Z,55.89
2022-07-26T06:02:16.012Z,56.19
2022-07-26T06:04:42.734Z,55.70
2022-07-26T06:07:09.412Z,55.59
2022-07-26T06:09:36.114Z,54.75
2022-07-26T06:12:02.704Z,54.87
2022-07-26T06:14:29.240Z,55.07
2022-07-26T06:16:56.627Z,55.69
2022-07-26T06:19:23.327Z,55.26
2022-07-26T06:21:49.935Z,55.23
2022-07-26T06:24:16.681Z,55.71
2022-07-26T06:26:43.364Z,55.29
2022-07-26T06:29:10.177Z,55.46
2022-07-26T06:31:37.538Z,54.31
2022-07-26T06:34:04.342Z,51.99
2022-07-26T06:36:31.398Z,49.75
2022-07-26T06:38:58.528Z,50.67
2022-07-26T06:41:25.640Z,50.27
2022-07-26T06:43:52.208Z,49.72
2022-07-26T06:46:20.843Z,49.47
2022-07-26T06:48:52.786Z,49.63
2022-07-26T06:51:19.813Z,49.90
2022-07-26T06:53:46.467Z,49.35
2022-07-26T06:56:15.022Z,48.29
2022-07-26T06:58:42.651Z,48.49
2022-07-26T07:01:09.353Z,49.68
2022-07-26T07:03:36.234Z,49.00
2022-07-26T07:06:03.061Z,50.58
2022-07-26T07:08:29.837Z,50.09
2022-07-26T07:10:56.768Z,50.37
2022-07-26T07:13:23.772Z,51.15
2022-07-26T07:15:50.420Z,49.81
2022-07-26T07:18:17.239Z,49.33
2022-07-26T07:20:43.815Z,49.98
2022-07-26T07:23:10.372Z,48.91
2022-07-26T07:25:36.968Z,48.63
2022-07-26T07:28:04.148Z,48.76
2022-07-26T07:30:31.460Z,48.48
2022-07-26T07:32:58.362Z,46.92
2022-07-26T07:35:31.551Z,46.13
2022-07-26T07:37:58.995Z,47.41
2022-07-26T07:40:26.061Z,47.88
2022-07-26T07:42:52.739Z,47.74
2022-07-26T07:45:19.386Z,48.19
2022-07-26T07:47:45.954Z,46.74
2022-07-26T07:50:12.551Z,46.42
2022-07-26T07:52:39.300Z,47.82
2022-07-26T07:55:36.106Z,47.63
2022-07-26T07:57:54.488Z,46.89
2022-07-26T08:00:27.295Z,46.82
2022-07-26T08:02:55.147Z,47.20
2022-07-26T08:05:21.834Z,47.67
2022-07-26T08:07:49.636Z,49.13
2022-07-26T08:10:19.852Z,49.74
2022-07-26T08:12:46.452Z,49.54
2022-07-26T08:15:19.395Z,47.24
2022-07-26T08:17:51.057Z,45.35
2022-07-26T08:20:20.690Z,45.87
2022-07-26T08:22:50.538Z,45.61
2022-07-26T08:25:17.135Z,45.19
2022-07-26T08:27:55.035Z,44.55
2022-07-26T08:30:29.375Z,44.29
2022-07-26T08:32:56.037Z,45.04
2022-07-26T08:35:22.586Z,45.59
2022-07-26T08:37:50.098Z,45.50
2022-07-26T08:40:16.832Z,45.05
2022-07-26T08:42:52.662Z,45.18
2022-07-26T08:45:27.971Z,45.61
2022-07-26T08:48:16.879Z,46.00
2022-07-26T08:50:42.268Z,46.35
2022-07-26T08:53:10.202Z,46.54
2022-07-26T08:56:04.236Z,46.50
2022-07-26T08:58:23.762Z,46.04
2022-07-26T09:01:13.200Z,45.89
2022-07-26T09:03:43.977Z,45.83
2022-07-26T09:06:22.027Z,45.16
2022-07-26T09:08:53.272Z,43.76
2022-07-26T09:11:32.140Z,43.08
2022-07-26T09:14:02.116Z,43.65
2022-07-26T09:16:29.827Z,44.37
2022-07-26T09:19:16.384Z,45.27
2022-07-26T09:21:43.393Z,44.87
2022-07-26T09:24:10.665Z,44.20
2022-07-26T09:26:37.555Z,42.18
2022-07-26T09:29:10.396Z,42.70
2022-07-26T09:31:39.355Z,43.27
2022-07-26T09:34:07.419Z,43.63
2022-07-26T09:36:50.970Z,42.10
2022-07-26T09:39:17.805Z,41.20
2022-07-26T09:42:25.040Z,41.60
2022-07-26T09:44:48.129Z,42.14
2022-07-26T09:47:14.797Z,42.38
2022-07-26T09:49:42.394Z,41.97
2022-07-26T09:52:20.532Z,41.43
2022-07-26T09:54:49.577Z,41.07
2022-07-26T09:57:18.349Z,41.65
2022-07-26T09:59:45.771Z,41.62
2022-07-26T10:02:14.141Z,41.91
2022-07-26T10:04:42.147Z,41.06
2022-07-26T10:07:10.022Z,40.67
2022-07-26T10:09:49.063Z,40.43
2022-07-26T10:12:17.184Z,40.97
2022-07-26T10:14:47.968Z,41.91
2022-07-26T10:17:31.752Z,43.28
2022-07-26T10:20:10.537Z,43.50
2022-07-26T10:22:48.310Z,43.23
2022-07-26T10:25:17.713Z,43.46
2022-07-26T10:27:53.195Z,42.88
2022-07-26T10:30:19.791Z,41.24
2022-07-26T10:33:00.258Z,41.21
2022-07-26T10:35:32.096Z,41.93
2022-07-26T10:38:03.706Z,42.49
2022-07-26T10:40:30.487Z,42.20
2022-07-26T10:43:39.639Z,41.59
2022-07-26T10:46:16.875Z,41.83
2022-07-26T10:49:07.367Z,42.02
2022-07-26T10:51:35.032Z,41.86
2022-07-26T10:54:03.863Z,41.85
2022-07-26T10:56:33.374Z,42.24
2022-07-26T10:59:01.334Z,40.34
2022-07-26T11:01:36.205Z,40.71
2022-07-26T11:04:03.315Z,40.58
2022-07-26T11:06:30.465Z,40.75
2022-07-26T11:08:57.297Z,40.43
2022-07-26T11:11:33.451Z,39.34
2022-07-26T11:14:15.476Z,39.73
2022-07-26T11:16:45.334Z,39.27
2022-07-26T11:19:19.513Z,38.54
2022-07-26T11:21:53.007Z,39.13
2022-07-26T11:24:19.812Z,38.60
2022-07-26T11:26:47.413Z,38.65
2022-07-26T11:29:17.596Z,38.76
2022-07-26T11:31:58.142Z,38.22
2022-07-26T11:34:33.176Z,36.81
2022-07-26T11:37:02.316Z,36.57
2022-07-26T11:39:31.241Z,36.16
2022-07-26T11:42:00.346Z,36.75
2022-07-26T11:44:28.427Z,37.72
2022-07-26T11:46:57.721Z,39.72
2022-07-26T11:52:20.765Z,41.04
2022-07-26T11:54:54.627Z,41.58
2022-07-26T11:57:21.625Z,42.60
2022-07-26T11:59:50.513Z,42.60
2022-07-26T12:02:17.475Z,42.26
2022-07-26T12:04:44.843Z,41.94
2022-07-26T12:07:21.386Z,41.43
2022-07-26T12:09:50.445Z,41.19
2022-07-26T12:12:21.176Z,40.75
2022-07-26T12:15:00.241Z,39.89
2022-07-26T12:17:35.194Z,39.92
2022-07-26T12:20:17.560Z,40.33
2022-07-26T12:22:56.044Z,40.71
2022-07-26T12:25:27.196Z,40.86
2022-07-26T12:27:53.982Z,41.44
2022-07-26T12:30:20.859Z,39.92
2022-07-26T12:32:55.415Z,39.27
2022-07-26T12:35:33.681Z,39.32
2022-07-26T12:38:00.708Z,38.42
2022-07-26T12:40:39.505Z,37.94
2022-07-26T12:43:06.406Z,37.29
2022-07-26T12:45:35.108Z,37.00
2022-07-26T12:48:06.990Z,36.90
2022-07-26T12:50:33.596Z,37.90
2022-07-26T12:53:01.559Z,38.78
2022-07-26T12:55:28.214Z,38.24
2022-07-26T12:57:57.030Z,39.09
2022-07-26T13:00:24.594Z,38.07
2022-07-26T13:02:52.924Z,38.75
2022-07-26T13:05:19.539Z,37.13
2022-07-26T13:07:46.377Z,36.41
2022-07-26T13:12:59.741Z,35.69
2022-07-26T13:15:36.283Z,36.38
2022-07-26T13:18:05.134Z,36.64
2022-07-26T13:20:31.685Z,37.63
2022-07-26T13:22:58.356Z,37.38
2022-07-26T13:25:25.557Z,37.42
2022-07-26T13:27:56.077Z,37.64
2022-07-26T13:30:22.757Z,37.24
2022-07-26T13:32:49.420Z,36.83
2022-07-26T13:35:16.010Z,36.60
2022-07-26T13:37:42.595Z,36.53
2022-07-26T13:40:09.836Z,35.61
2022-07-26T13:42:38.161Z,35.73
2022-07-26T13:45:07.028Z,35.44
2022-07-26T13:47:33.584Z,35.15
2022-07-26T13:50:00.267Z,35.20
2022-07-26T13:52:26.981Z,34.52
2022-07-26T13:54:53.575Z,35.22
2022-07-26T13:57:20.105Z,35.04
2022-07-26T13:59:46.778Z,34.90
2022-07-26T14:02:13.634Z,35.59
2022-07-26T14:04:40.432Z,35.33
2022-07-26T14:07:07.081Z,36.08
2022-07-26T14:09:33.863Z,36.96
2022-07-26T14:12:00.496Z,36.12
2022-07-26T14:14:27.088Z,36.00
2022-07-26T14:16:53.824Z,36.47
2022-07-26T14:19:20.458Z,35.25
2022-07-26T14:21:58.812Z,35.17
2022-07-26T14:24:26.419Z,34.51
2022-07-26T14:26:56.906Z,34.34
2022-07-26T14:29:26.391Z,35.64
2022-07-26T14:31:53.351Z,35.01
2022-07-26T14:34:20.107Z,35.46
2022-07-26T14:36:46.742Z,34.81
2022-07-26T14:39:13.312Z,35.29
2022-07-26T14:41:39.987Z,35.43
2022-07-26T14:44:06.868Z,35.58
2022-07-26T14:46:33.645Z,36.62
2022-07-26T14:49:00.394Z,35.32
2022-07-26T14:51:27.245Z,36.26
2022-07-26T14:53:53.841Z,35.52
2022-07-26T14:56:20.537Z,36.13
2022-07-26T14:58:47.193Z,37.97
2022-07-26T15:01:13.858Z,37.80
2022-07-26T15:03:40.521Z,37.64
2022-07-26T15:06:07.101Z,37.30
2022-07-26T15:08:33.793Z,37.21
2022-07-26T15:11:00.499Z,34.61
2022-07-26T15:13:27.334Z,35.20
2022-07-26T15:15:54.107Z,36.00
2022-07-26T15:18:20.646Z,35.14
2022-07-26T15:20:47.327Z,35.88
2022-07-26T15:23:15.244Z,36.00
2022-07-26T15:25:42.300Z,36.25
2022-07-26T15:28:09.054Z,37.15
2022-07-26T15:30:35.907Z,36.67
2022-07-26T15:33:02.471Z,36.17
2022-07-26T15:35:30.041Z,36.88
2022-07-26T15:37:57.575Z,36.93
2022-07-26T15:40:24.817Z,37.30
2022-07-26T15:42:53.039Z,36.73
2022-07-26T15:45:21.020Z,35.97
2022-07-26T15:47:55.972Z,35.81
2022-07-26T15:50:25.072Z,35.67
2022-07-26T15:52:51.604Z,35.91
2022-07-26T15:55:19.774Z,35.50
2022-07-26T15:57:46.579Z,34.78
2022-07-26T16:00:14.127Z,34.69
2022-07-26T16:02:41.277Z,35.57
2022-07-26T16:05:09.114Z,35.17
2022-07-26T16:07:35.752Z,34.78
2022-07-26T16:10:02.393Z,34.74
2022-07-26T16:12:29.609Z,34.76
2022-07-26T16:14:56.435Z,34.79
2022-07-26T16:17:23.111Z,33.85
2022-07-26T16:19:49.771Z,34.65
2022-07-26T16:22:16.902Z,34.30
2022-07-26T16:24:43.668Z,34.02
2022-07-26T16:27:10.390Z,33.67
2022-07-26T16:29:36.995Z,33.82
2022-07-26T16:32:03.656Z,33.73
2022-07-26T16:34:30.484Z,34.39
2022-07-26T16:36:57.120Z,34.52
2022-07-26T16:39:23.671Z,35.35
2022-07-26T16:41:50.268Z,35.50
2022-07-26T16:44:16.841Z,35.43
2022-07-26T16:46:44.306Z,35.03
2022-07-26T16:49:11.758Z,34.89
2022-07-26T16:51:38.726Z,34.87
2022-07-26T16:54:05.439Z,35.37
2022-07-26T16:56:32.089Z,35.03
2022-07-26T16:58:58.799Z,35.26
2022-07-26T17:01:25.523Z,35.42
2022-07-26T17:03:52.156Z,35.58
2022-07-26T17:06:18.747Z,36.04
2022-07-26T17:08:45.340Z,36.83
2022-07-26T17:11:11.891Z,38.13
2022-07-26T17:13:38.499Z,38.48
2022-07-26T17:16:05.471Z,39.63
2022-07-26T17:18:32.129Z,40.00
2022-07-26T17:20:59.317Z,40.86
2022-07-26T17:23:25.967Z,41.28
2022-07-26T17:25:52.810Z,41.33
2022-07-26T17:28:19.330Z,41.86
2022-07-26T17:30:46.245Z,41.59
2022-07-26T17:33:13.033Z,41.96
2022-07-26T17:35:39.638Z,42.10
2022-07-26T17:38:06.250Z,42.14
2022-07-26T17:40:34.323Z,42.31
2022-07-26T17:43:01.097Z,42.51
2022-07-26T17:45:27.771Z,42.83
2022-07-26T17:47:54.446Z,42.63
2022-07-26T17:50:38.014Z,42.92
2022-07-26T17:53:05.692Z,43.04
2022-07-26T17:55:32.450Z,42.62
2022-07-26T17:57:59.164Z,42.41
2022-07-26T18:00:29.161Z,42.58
2022-07-26T18:02:57.078Z,42.30
2022-07-26T18:05:30.131Z,42.57
2022-07-26T18:08:00.267Z,42.56
2022-07-26T18:10:27.716Z,42.38
2022-07-26T18:12:55.216Z,42.18
2022-07-26T18:15:21.995Z,42.28
2022-07-26T18:17:48.538Z,42.53
2022-07-26T18:20:15.224Z,42.53
2022-07-26T18:22:41.844Z,42.33
2022-07-26T18:25:12.779Z,42.40
2022-07-26T18:27:39.434Z,42.66
2022-07-26T18:30:06.689Z,42.90
2022-07-26T18:32:34.365Z,42.10
2022-07-26T18:35:01.122Z,42.38
2022-07-26T18:37:27.847Z,42.47
2022-07-26T18:39:57.851Z,42.39
2022-07-26T18:42:24.693Z,42.20
2022-07-26T18:44:51.395Z,42.20
2022-07-26T18:47:18.104Z,42.61
2022-07-26T18:49:44.719Z,42.29
2022-07-26T18:52:11.637Z,42.20
2022-07-26T18:54:38.152Z,42.02
2022-07-26T18:57:05.033Z,42.02
2022-07-26T18:59:32.117Z,42.05
2022-07-26T19:01:59.981Z,42.21
2022-07-26T19:04:27.770Z,42.01
2022-07-26T19:06:54.540Z,42.04
2022-07-26T19:09:21.418Z,42.13
2022-07-26T19:11:48.243Z,42.00
2022-07-26T19:14:14.968Z,42.49
2022-07-26T19:16:41.634Z,42.22
2022-07-26T19:19:08.246Z,42.12
2022-07-26T19:21:35.137Z,41.89
2022-07-26T19:24:01.936Z,42.34
2022-07-26T19:26:31.074Z,42.42
2022-07-26T19:28:57.806Z,42.30
2022-07-26T19:31:24.463Z,42.66
2022-07-26T19:33:51.095Z,42.51
2022-07-26T19:36:25.383Z,42.83
2022-07-26T19:38:53.065Z,42.86
2022-07-26T19:41:20.023Z,43.31
2022-07-26T19:43:46.815Z,43.27
2022-07-26T19:46:13.889Z,43.44
2022-07-26T19:48:40.843Z,43.33
2022-07-26T19:51:07.470Z,43.46
2022-07-26T19:53:34.192Z,43.36
2022-07-26T19:56:00.862Z,43.34
2022-07-26T19:58:29.182Z,43.34
2022-07-26T20:00:56.035Z,43.41
2022-07-26T20:03:22.741Z,43.51
2022-07-26T20:05:50.046Z,44.07
2022-07-26T20:08:16.964Z,44.45
2022-07-26T20:10:43.483Z,44.81
2022-07-26T20:13:10.045Z,45.10
2022-07-26T20:15:36.641Z,45.08
2022-07-26T20:18:04.597Z,45.27
2022-07-26T20:20:31.821Z,45.29
2022-07-26T20:22:58.623Z,45.65
2022-07-26T20:25:25.292Z,45.65
2022-07-26T20:27:51.845Z,46.11
2022-07-26T20:30:18.644Z,46.16
2022-07-26T20:32:45.223Z,46.56
2022-07-26T20:35:12.027Z,46.92
2022-07-26T20:37:38.941Z,46.83
2022-07-26T20:40:09.083Z,47.75
2022-07-26T20:42:36.334Z,48.23
2022-07-26T20:45:11.298Z,48.52
2022-07-26T20:47:42.943Z,48.83
2022-07-26T20:50:11.011Z,48.68
2022-07-26T20:52:37.614Z,49.21
2022-07-26T20:55:04.941Z,49.43
2022-07-26T20:57:31.529Z,49.42
2022-07-26T20:59:58.061Z,49.64
2022-07-26T21:02:24.776Z,49.58
2022-07-26T21:04:51.549Z,49.81
2022-07-26T21:07:18.511Z,50.12
2022-07-26T21:09:45.257Z,50.30
2022-07-26T21:12:11.837Z,49.94
2022-07-26T21:14:38.434Z,50.55
2022-07-26T21:17:10.983Z,50.74
2022-07-26T21:19:38.561Z,50.85
2022-07-26T21:22:05.156Z,50.98
2022-07-26T21:24:31.690Z,51.28
2022-07-26T21:26:58.272Z,51.24
2022-07-26T21:29:24.806Z,51.42
2022-07-26T21:31:51.430Z,51.42
2022-07-26T21:34:18.018Z,51.71
2022-07-26T21:36:44.889Z,52.03
2022-07-26T21:39:12.151Z,52.19
2022-07-26T21:41:39.396Z,52.46
2022-07-26T21:44:06.986Z,52.79
2022-07-26T21:46:33.707Z,53.22
2022-07-26T21:49:00.361Z,53.35
2022-07-26T21:51:26.992Z,53.24
2022-07-26T21:53:53.558Z,53.68
2022-07-26T21:56:20.120Z,53.96
2022-07-26T21:58:47.009Z,54.30
2022-07-26T22:01:14.134Z,54.69
2022-07-26T22:03:42.256Z,54.55
2022-07-26T22:06:09.871Z,55.02
2022-07-26T22:08:36.914Z,55.35
2022-07-26T22:11:03.943Z,55.33
2022-07-26T22:13:30.925Z,54.87
2022-07-26T22:15:57.682Z,54.67
2022-07-26T22:18:24.397Z,54.18
2022-07-26T22:20:51.035Z,54.66
2022-07-26T22:23:18.658Z,54.70
2022-07-26T22:25:45.813Z,55.34
2022-07-26T22:28:12.663Z,55.46
2022-07-26T22:30:45.796Z,56.00
2022-07-26T22:33:12.442Z,56.35
2022-07-26T22:35:39.074Z,56.45
2022-07-26T22:38:08.872Z,56.74
2022-07-26T22:40:36.752Z,57.07
2022-07-26T22:43:03.474Z,57.48
2022-07-26T22:45:30.622Z,57.62
2022-07-26T22:47:58.117Z,58.07
2022-07-26T22:50:25.016Z,58.15
2022-07-26T22:52:52.577Z,58.39
2022-07-26T22:55:19.685Z,59.20
2022-07-26T22:57:46.872Z,58.91
2022-07-26T23:00:15.989Z,58.95
2022-07-26T23:02:42.855Z,59.26
2022-07-26T23:05:10.498Z,58.99
2022-07-26T23:07:37.961Z,59.03
2022-07-26T23:10:06.962Z,59.32
2022-07-26T23:12:33.644Z,59.56
2022-07-26T23:15:00.195Z,59.37
2022-07-26T23:17:26.826Z,59.84
2022-07-26T23:19:53.322Z,60.24
2022-07-26T23:22:20.990Z,60.78
2022-07-26T23:24:47.538Z,61.23
2022-07-26T23:27:19.674Z,61.31
2022-07-26T23:29:49.036Z,61.56
2022-07-26T23:32:15.860Z,61.35
2022-07-26T23:34:42.485Z,61.83
2022-07-26T23:37:09.094Z,61.85
2022-07-26T23:39:35.857Z,61.95
2022-07-26T23:42:03.011Z,61.84
2022-07-26T23:44:30.647Z,61.94
2022-07-26T23:46:57.855Z,61.69
2022-07-26T23:49:24.543Z,62.10
2022-07-26T23:51:51.101Z,61.75
2022-07-26T23:54:17.771Z,62.27
2022-07-26T23:56:45.647Z,62.17
2022-07-26T23:59:13.428Z,62.42
